Naniwa Maru No.65 — JD2750 — position and weather

sailwx.info

Track history (hours):
 
Tides and Currents Weather Stations Pressure Air Temp Water Temp Dewpoint Dewpoint Depression Visibility Wind Speed Wind Dir Waves Ship Positions

Naniwa Maru No.65

Last reported at 2017-Dec-15 15:55 UTC. Time now 2017-Dec-15 16:08 UTC.
Position N 35°32' E 140°02'.

Length 105 m; draft 5.4 m.

Type: Tanker. MMSI: 431000661.

Date/timePositionNaut miles runAvg speedWind from/ knotsBaromVisibWave heightAir tempDewpointWater temp
2017-Dec-15 15:55N 35°32' E 140°02'0 0.0
2017-Dec-15 15:28N 35°32' E 140°02'0 0.0
2017-Dec-15 14:55N 35°32' E 140°02'0 0.0
2017-Dec-15 14:25N 35°32' E 140°02'0 0.0
2017-Dec-15 13:58N 35°32' E 140°02'0 0.0
2017-Dec-15 13:25N 35°32' E 140°02'0 0.1
2017-Dec-15 12:58N 35°32' E 140°02'0 0.0
2017-Dec-15 12:28N 35°32' E 140°02'0 0.6
2017-Dec-15 12:01N 35°32' E 140°02'713.3
2017-Dec-15 11:30N 35°30' E 139°54'714.7
2017-Dec-15 11:01N 35°25' E 139°47'713.2
2017-Dec-15 10:30N 35°19' E 139°44'612.3
2017-Dec-15 10:00N 35°13' E 139°47'714.7
2017-Dec-15 09:30N 35°06' E 139°45'815.2
2017-Dec-15 09:00N 34°58' E 139°43'1910.6
2017-Dec-15 07:10N 34°57' E 140°07'  
2017-Dec-10 01:14N 41°25' E 141°34'715.6
2017-Dec-10 00:46N 41°30' E 141°26'616.3
2017-Dec-10 00:22N 41°31' E 141°18'616.7
2017-Dec-10 00:01N 41°33' E 141°10'918.0
2017-Dec-09 23:31N 41°37' E 140°59'816.0
2017-Dec-09 23:00N 41°34' E 140°49'816.2
2017-Dec-09 22:31N 41°29' E 140°41'917.4
2017-Dec-09 22:00N 41°24' E 140°31'11 0.2
2017-Dec-08 00:42N 41°19' E 140°19'311.1
2017-Dec-08 00:26N 41°21' E 140°22'511.2
2017-Dec-08 00:00N 41°23' E 140°27'610.9
2017-Dec-07 23:29N 41°26' E 140°34'612.3
2017-Dec-07 23:00N 41°30' E 140°40'613.0
2017-Dec-07 22:30N 41°33' E 140°48'611.7
2017-Dec-07 22:00N 41°36' E 140°54'511.0
2017-Dec-07 21:30N 41°36' E 141°02'5 9.8
2017-Dec-07 21:00N 41°35' E 141°08'510.3
2017-Dec-07 20:30N 41°34' E 141°15'610.9
2017-Dec-07 20:00N 41°32' E 141°22'510.4
2017-Dec-07 19:30N 41°30' E 141°28'510.2
2017-Dec-07 18:59N 41°27' E 141°33'  
Track history (hours):
 
Tides and Currents Weather Stations Pressure Air Temp Water Temp Dewpoint Dewpoint Depression Visibility Wind Speed Wind Dir Waves Ship Positions

Naniwa Maru No.65

Last reported at 2017-Dec-15 15:55 UTC. Time now 2017-Dec-15 16:08 UTC.
Position N 35°32' E 140°02'.

Length 105 m; draft 5.4 m.

Type: Tanker. MMSI: 431000661.

Date/timePositionNaut miles runAvg speedWind from/ knotsBaromVisibWave heightAir tempDewpointWater temp
2017-Dec-15 15:55N 35°32' E 140°02'0 0.0
2017-Dec-15 15:28N 35°32' E 140°02'0 0.0
2017-Dec-15 14:55N 35°32' E 140°02'0 0.0
2017-Dec-15 14:25N 35°32' E 140°02'0 0.0
2017-Dec-15 13:58N 35°32' E 140°02'0 0.0
2017-Dec-15 13:25N 35°32' E 140°02'0 0.1
2017-Dec-15 12:58N 35°32' E 140°02'0 0.0
2017-Dec-15 12:28N 35°32' E 140°02'0 0.6
2017-Dec-15 12:01N 35°32' E 140°02'713.3
2017-Dec-15 11:30N 35°30' E 139°54'714.7
2017-Dec-15 11:01N 35°25' E 139°47'713.2
2017-Dec-15 10:30N 35°19' E 139°44'612.3
2017-Dec-15 10:00N 35°13' E 139°47'714.7
2017-Dec-15 09:30N 35°06' E 139°45'815.2
2017-Dec-15 09:00N 34°58' E 139°43'1910.6
2017-Dec-15 07:10N 34°57' E 140°07'  
2017-Dec-10 01:14N 41°25' E 141°34'715.6
2017-Dec-10 00:46N 41°30' E 141°26'616.3
2017-Dec-10 00:22N 41°31' E 141°18'616.7
2017-Dec-10 00:01N 41°33' E 141°10'918.0
2017-Dec-09 23:31N 41°37' E 140°59'816.0
2017-Dec-09 23:00N 41°34' E 140°49'816.2
2017-Dec-09 22:31N 41°29' E 140°41'917.4
2017-Dec-09 22:00N 41°24' E 140°31'11 0.2
2017-Dec-08 00:42N 41°19' E 140°19'311.1
2017-Dec-08 00:26N 41°21' E 140°22'511.2
2017-Dec-08 00:00N 41°23' E 140°27'610.9
2017-Dec-07 23:29N 41°26' E 140°34'612.3
2017-Dec-07 23:00N 41°30' E 140°40'613.0
2017-Dec-07 22:30N 41°33' E 140°48'611.7
2017-Dec-07 22:00N 41°36' E 140°54'511.0
2017-Dec-07 21:30N 41°36' E 141°02'5 9.8
2017-Dec-07 21:00N 41°35' E 141°08'510.3
2017-Dec-07 20:30N 41°34' E 141°15'610.9
2017-Dec-07 20:00N 41°32' E 141°22'510.4
2017-Dec-07 19:30N 41°30' E 141°28'510.2
2017-Dec-07 18:59N 41°27' E 141°33'  

Dump ship's entire track history